- Siena (Round Rock, TX) - Nearby METAR Reports

Nearby METAR Reports

 

KEDC - Austin Exec, Texas, USA
Distance from station: SSE 10mi, 17km
Updated: Sun, 25-Feb-2024 10:15pm CST
NOT Current
Clear
Clear
 Wind from S
Wind: S 8 mph , 13 km/h
Temperature: 68°F , 20°C
Dew Point: 64°F , 18°C
Humidity: 88%
Barometer: 29.97 inHg , 1014.9 hPa
Clouds: Clear
Visibility: 7 miles , 11 km
2024/02/26 04:15 KEDC 260415Z AUTO 19007KT 7SM CLR 20/18 A2997 RMK AO2
KGTU - Georgetown, Texas, USA
Distance from station: NNW 11mi, 17km
Updated: Tue, 27-Feb-2024 4:56pm CST
Clear
Clear
 Wind from S
Wind: S 10 mph , 17 km/h
Temperature: 79°F , 26°C
Dew Point: 64°F , 18°C
Humidity: 61%
Barometer: 29.73 inHg , 1006.8 hPa
Clouds: Clear
Visibility: 10 miles , 16 km
2024/02/27 22:56 KGTU 272256Z 19009KT 10SM CLR 26/18 A2973 RMK AO2 SLP061 T02560183
 
KATT - Austin/Mabry, Texas, USA
Distance from station: SSW 18mi, 30km
Updated: Tue, 27-Feb-2024 4:51pm CST
Clear
Clear
 Wind from varies
Wind: varies 3 mph , 6 km/h
Temperature: 79°F , 26°C
Dew Point: 64°F , 18°C
Humidity: 61%
Barometer: 29.71 inHg , 1006.1 hPa
Clouds: Clear
Visibility: 8 miles , 13 km
2024/02/27 22:51 KATT 272251Z AUTO VRB03KT 8SM CLR 26/18 A2971 RMK AO2 SLP051 T02560183
KRYW - Lago Vista, Texas, USA
Distance from station: W 22mi, 35km
Updated: Tue, 27-Feb-2024 5:15pm CST
Clear
Clear
 Wind from SE
Wind: SE 3 mph , 6 km/h
Temperature: 77°F , 25°C
Dew Point: 66°F , 19°C
Humidity: 69%
Barometer: 29.73 inHg , 1006.8 hPa
Clouds: Clear
Visibility: 10 miles , 16 km
2024/02/27 23:15 KRYW 272315Z AUTO 14003KT 10SM CLR 25/19 A2973 RMK AO2 T02470190
 
KAUS - Austin, Texas, USA
Distance from station: S 25mi, 41km
Updated: Tue, 27-Feb-2024 4:53pm CST
Mostly cloudy
Mostly cloudy
 Wind from S
Wind: S 9 mph , 15 km/h
Temperature: 79°F , 26°C
Dew Point: 66°F , 19°C
Humidity: 65%
Barometer: 29.69 inHg , 1005.4 hPa
Clouds: Mostly cloudy
Visibility: 8 miles , 13 km
Cloud details: Partly cloudy 18000 ft
Mostly cloudy 20000 ft
Mostly cloudy 25000 ft
2024/02/27 22:53 KAUS 272253Z 18008KT 8SM SCT180 BKN200 BKN250 26/19 A2969 RMK AO2 SLP044 T02560194
KILE - Killeen Muni, Texas, USA
Distance from station: N 36mi, 58km
Updated: Tue, 27-Feb-2024 4:56pm CST
Clear
Clear
 Wind from SSE
Wind: SSE 10 mph , 17 km/h
Temperature: 79°F , 26°C
Dew Point: 66°F , 19°C
Humidity: 65%
Barometer: 29.70 inHg , 1005.8 hPa
Clouds: Clear
Visibility: 10 miles , 16 km
2024/02/27 22:56 KILE 272256Z AUTO 16009KT 10SM CLR 26/19 A2970 RMK AO2 SLP050 T02560194
 
KGRK - Gray/Ft Hood, Texas, USA
Distance from station: NNW 38mi, 62km
Updated: Tue, 27-Feb-2024 4:55pm CST
Few Clouds
Few Clouds
 Wind from calm
Wind: Calm
Temperature: 81°F , 27°C
Heat Index: 83°F , 28°C
Dew Point: 66°F , 19°C
Humidity: 62%
Barometer: 29.70 inHg , 1005.8 hPa
Clouds: Few Clouds
Visibility: 10 miles , 16 km
Cloud details: Few Clouds 14000 ft
Few Clouds 17000 ft
2024/02/27 22:55 KGRK 272255Z AUTO 00000KT 10SM FEW140 FEW170 27/19 A2970 RMK AO2 SLP048 T02700185
KBMQ - Burnet, Texas, USA
Distance from station: WNW 39mi, 64km
Updated: Tue, 27-Feb-2024 4:53pm CST
Clear
Clear
 Wind from S
Wind: S 5 mph , 7 km/h
Temperature: 81°F , 27°C
Heat Index: 83°F , 28°C
Dew Point: 66°F , 19°C
Humidity: 62%
Barometer: 29.73 inHg , 1006.8 hPa
Clouds: Clear
Visibility: 10 miles , 16 km
2024/02/27 22:53 KBMQ 272253Z AUTO 17004KT 10SM CLR 27/19 A2973 RMK AO2 SLP050 T02720189
 
KHLR - Ft Hood/Killeen, Texas, USA
Distance from station: N 41mi, 66km
Updated: Tue, 27-Feb-2024 4:55pm CST
Few Clouds
Few Clouds
 Wind from S
Wind: S 8 mph , 13 km/h
Temperature: 81°F , 27°C
Heat Index: 83°F , 28°C
Dew Point: 66°F , 19°C
Humidity: 62%
Barometer: 29.70 inHg , 1005.8 hPa
Clouds: Few Clouds
Visibility: 10 miles , 16 km
Cloud details: Few Clouds 17000 ft
2024/02/27 22:55 KHLR 272255Z AUTO 18007KT 10SM FEW170 27/19 A2970 RMK AO2 RAB00E09 SLP048 P0000 T02680186
KTPL - Temple/Miller, Texas, USA
Distance from station: NNE 42mi, 68km
Updated: Tue, 27-Feb-2024 4:51pm CST
Clear
Clear
 Wind from S
Wind: S 15 mph , 24 km/h
Temperature: 75°F , 24°C
Dew Point: 66°F , 19°C
Humidity: 74%
Barometer: 29.69 inHg , 1005.4 hPa
Clouds: Clear
Visibility: 10 miles , 16 km
2024/02/27 22:51 KTPL 272251Z AUTO 17013KT 10SM CLR 24/19 A2969 RMK AO2 SLP044 T02440189
 
KT35 - Cameron, Texas, USA
Distance from station: ENE 45mi, 72km
Updated: Tue, 27-Feb-2024 5:15pm CST
Clear
Clear
 Wind from SSW
Wind: SSW 6 mph , 9 km/h
Temperature: 77°F , 25°C
Dew Point: 66°F , 19°C
Humidity: 69%
Barometer: 29.71 inHg , 1006.1 hPa
Clouds: Clear
Visibility: 10 miles , 16 km
2024/02/27 23:15 KT35 272315Z AUTO 21005KT 10SM CLR 25/19 A2971 RMK AO2 T02480190
KDZB - Horseshoe Bay, Texas, USA
Distance from station: W 45mi, 73km
Updated: Tue, 27-Feb-2024 5:15pm CST
Clear
Clear
 Wind from SSW
Wind: SSW 3 mph , 6 km/h
Temperature: 82°F , 28°C
Heat Index: 82°F , 28°C
Dew Point: 61°F , 16°C
Humidity: 48%
Barometer: 29.71 inHg , 1006.1 hPa
Clouds: Clear
Visibility: 10 miles , 16 km
2024/02/27 23:15 KDZB 272315Z AUTO 20003KT 10SM CLR 28/16 A2971 RMK AO2 T02760161
 
KGYB - Giddings-Lee, Texas, USA
Distance from station: SE 45mi, 73km
Updated: Tue, 27-Feb-2024 5:15pm CST
Clear
Clear
 Wind from calm
Wind: Calm
Temperature: 79°F , 26°C
Dew Point: 68°F , 20°C
Humidity: 70%
Barometer: 29.71 inHg , 1006.1 hPa
Clouds: Clear
Visibility: 10 miles , 16 km
2024/02/27 23:15 KGYB 272315Z AUTO 00000KT 10SM CLR 26/20 A2971 RMK AO2 T02600196
KHYI - San Marcos, Texas, USA
Distance from station: SSW 48mi, 78km
Updated: Tue, 27-Feb-2024 4:56pm CST
Clear
Clear
 Wind from S
Wind: S 9 mph , 15 km/h
Temperature: 81°F , 27°C
Heat Index: 84°F , 29°C
Dew Point: 68°F , 20°C
Humidity: 66%
Barometer: 29.71 inHg , 1006.1 hPa
Clouds: Clear
Visibility: 10 miles , 16 km
2024/02/27 22:56 KHYI 272256Z 19008KT 10SM CLR 27/20 A2971 RMK AO2 SLP050 T02720200
 
KLZZ - Lampasas, Texas, USA
Distance from station: NW 52mi, 84km
Updated: Tue, 27-Feb-2024 4:55pm CST
Clear
Clear
 Wind from SSW
Wind: SSW 5 mph , 7 km/h
Temperature: 75°F , 24°C
Dew Point: 63°F , 17°C
Humidity: 65%
Barometer: 29.67 inHg , 1004.7 hPa
Clouds: Clear
Visibility: 10 miles , 16 km
2024/02/27 22:55 KLZZ 272255Z AUTO 21004KT 10SM CLR 24/17 A2967 RMK AO2 T02420166
KRWV - Caldwell, Texas, USA
Distance from station: E 54mi, 87km
Updated: Tue, 27-Feb-2024 5:15pm CST
Clear
Clear
 Wind from S
Wind: S 7 mph , 11 km/h
Temperature: 75°F , 24°C
Dew Point: 66°F , 19°C
Humidity: 74%
Barometer: 29.71 inHg , 1006.1 hPa
Clouds: Clear
Visibility: 10 miles , 16 km
2024/02/27 23:15 KRWV 272315Z AUTO 18006KT 10SM CLR 24/19 A2971 RMK AO2 T02440192
 
K3T5 - La Grange, Texas, USA
Distance from station: SE 59mi, 95km
Updated: Tue, 27-Feb-2024 5:15pm CST
Clear
Clear
 Wind from SSE
Wind: SSE 6 mph , 9 km/h
Temperature: 79°F , 26°C
Dew Point: 73°F , 23°C
Humidity: 84%
Barometer: 29.69 inHg , 1005.4 hPa
Clouds: Clear
Visibility: 10 miles , 16 km
2024/02/27 23:15 K3T5 272315Z AUTO 15005KT 10SM CLR 26/23 A2969 RMK AO2 T02600231 $
KGOP - Gatesville, Texas, USA
Distance from station: N 61mi, 99km
Updated: Tue, 27-Feb-2024 5:15pm CST

 Wind from SSE
Wind: SSE 5 mph , 7 km/h
Temperature: 77°F , 25°C
Dew Point: 70°F , 21°C
Humidity: 79%
Barometer: 29.69 inHg , 1005.4 hPa
Visibility: 10 miles , 16 km
2024/02/27 23:15 KGOP 272315Z AUTO 16004KT 10SM 25/21 A2969 RMK AO2
 
KLHB - Hearne Muni, Texas, USA
Distance from station: ENE 63mi, 101km
Updated: Tue, 27-Feb-2024 5:15pm CST
Clear
Clear
 Wind from S
Wind: S 10 mph , 17 km/h
Temperature: 79°F , 26°C
Dew Point: 66°F , 19°C
Humidity: 65%
Barometer: 29.69 inHg , 1005.4 hPa
Clouds: Clear
Visibility: 10 miles , 16 km
2024/02/27 23:15 KLHB 272315Z AUTO 17009KT 10SM CLR 26/19 A2969 RMK AO2 T02600188
KBAZ - New Braunfels, Texas, USA
Distance from station: SSW 63mi, 102km
Updated: Tue, 27-Feb-2024 4:51pm CST
Clear
Clear
 Wind from S
Wind: S 9 mph , 15 km/h
Temperature: 81°F , 27°C
Heat Index: 83°F , 28°C
Dew Point: 66°F , 19°C
Humidity: 62%
Barometer: 29.68 inHg , 1005.1 hPa
Clouds: Clear
Visibility: 8 miles , 13 km
2024/02/27 22:51 KBAZ 272251Z 19008KT 8SM CLR 27/19 A2968 RMK AO2 SLP043 T02720194 $